This demonstration page uses our WeatherBlox Daily Observations layout. Learn more.

38.89511, -77.03637

Hourly Observations for September 10, 2019

Temp ( °F °C ) Dew Point ( °F °C ) Humidity (%) Winds ( mph kmh ) Pressure ( in mb ) Visibility ( mi km ) Precip ( " mm )
12:52 am 00:52 Mostly Cloudy 72 22.2 67 19.4 84 84 S 8 13 30.24 1024 10 16.09344 0 0
1:52 am 01:52 Mostly Cloudy 71 21.7 66 18.9 84 84 SSW 3 6 30.24 1024 10 16.09344 0 0
2:52 am 02:52 Mostly Cloudy 71 21.7 66 18.9 84 84 Calm 30.24 1024 10 16.09344 0 0
3:52 am 03:52 Mostly Cloudy 71 21.7 67 19.4 87 87 Calm 30.24 1024 10 16.09344 0 0
4:52 am 04:52 Mostly Cloudy 70 21.1 66 18.9 87 87 ENE 5 7 30.27 1025 10 16.09344 0 0
5:52 am 05:52 Partly Cloudy 70 21.1 65 18.3 84 84 ESE 3 6 30.3 1026 10 16.09344 0 0
6:52 am 06:52 Mostly Cloudy 70 21.1 66 18.9 87 87 E 6 9 30.3 1026 10 16.09344 0 0
7:52 am 07:52 Mostly Cloudy 71 21.7 66 18.9 84 84 Calm 30.3 1026 10 16.09344 0 0
8:52 am 08:52 Mostly Cloudy 73 22.8 68 20 84 84 Calm 30.33 1027 10 16.09344 0 0
9:52 am 09:52 Mostly Cloudy 77 25 69 20.6 77 77 S 7 11 30.33 1027 10 16.09344 0 0
10:52 am 10:52 Mostly Cloudy 79 26.1 64 17.8 60 60 S 8 13 30.33 1027 10 16.09344 0 0
11:52 am 11:52 Mostly Cloudy 84 28.9 64 17.8 51 51 S 7 11 30.33 1027 10 16.09344 0 0
12:52 pm 12:52 Mostly Cloudy 84 28.9 62 16.7 48 48 S 6 9 30.3 1026 10 16.09344 0 0
1:52 pm 13:52 Mostly Cloudy 86 30 61 16.1 43 43 S 8 13 30.27 1025 10 16.09344 0 0
2:52 pm 14:52 Mostly Cloudy 88 31.1 60 15.6 39 39 S 8 13 30.27 1025 10 16.09344 0 0
3:52 pm 15:52 Mostly Cloudy 85 29.4 64 17.8 50 50 S 9 15 30.27 1025 10 16.09344 0 0
5:52 pm 17:52 Mostly Cloudy 85 29.4 66 18.9 53 53 S 10 17 30.24 1024 10 16.09344 0 0
6:52 pm 18:52 Mostly Cloudy 83 28.3 67 19.4 59 59 S 9 15 30.24 1024 10 16.09344 0 0
7:52 pm 19:52 Mostly Cloudy 80 26.7 65 18.3 60 60 SSE 9 15 30.24 1024 10 16.09344 0 0
8:52 pm 20:52 Partly Cloudy 77 25 65 18.3 66 66 S 9 15 30.24 1024 10 16.09344 0 0
9:52 pm 21:52 Partly Cloudy 76 24.4 66 18.9 72 72 S 9 15 30.24 1024 10 16.09344 0 0
10:52 pm 22:52 Cloudy 75 23.9 66 18.9 74 74 S 14 22 30.24 1024 10 16.09344 0 0
11:52 pm 23:52 Cloudy 74 23.3 66 18.9 76 76 SSW 9 15 30.27 1025 10 16.09344 0 0

Powered by AerisWeather